Time;durP1;ratioP1;P1;durP2;ratioP2;P2;SDS_P1;SDS_P2;PMS_P1;PMS_P2;Temp;Humidity;BMP_temperature;BMP_pressure;BME280_temperature;BME280_humidity;BME280_pressure;Samples;Min_cycle;Max_cycle;Signal;HPM_P1;HPM_P2
2022/09/02 00:01:30;;;;;;;5.00;4.60;;;16.30;99.90;;;;;;5034255;28;20395;-69
2022/09/02 00:04:08;;;;;;;4.47;4.07;;;16.30;99.90;;;;;;5034094;28;20165;-69
2022/09/02 00:06:35;;;;;;;4.83;4.43;;;16.20;99.90;;;;;;5033620;28;20384;-69
2022/09/02 00:09:03;;;;;;;4.60;4.30;;;16.20;99.90;;;;;;5033654;28;20455;-68
2022/09/02 00:11:31;;;;;;;4.83;4.43;;;16.30;99.90;;;;;;5033292;28;20781;-69
2022/09/02 00:13:59;;;;;;;4.27;3.97;;;16.30;99.90;;;;;;5033636;28;20409;-68
2022/09/02 00:16:25;;;;;;;5.30;4.80;;;16.20;99.90;;;;;;5033378;28;20898;-69
2022/09/02 00:18:51;;;;;;;5.57;5.17;;;15.90;99.90;;;;;;5033247;28;20429;-69
2022/09/02 00:21:19;;;;;;;5.73;5.20;;;15.90;99.90;;;;;;5033582;28;20171;-69
2022/09/02 00:23:45;;;;;;;5.00;4.50;;;15.80;99.90;;;;;;5033638;28;20418;-68
2022/09/02 00:26:12;;;;;;;4.87;4.20;;;15.70;99.90;;;;;;5032155;28;20936;-68
2022/09/02 00:28:39;;;;;;;4.53;4.23;;;15.80;99.90;;;;;;5032978;28;20508;-69
2022/09/02 00:31:05;;;;;;;4.37;4.07;;;15.80;99.90;;;;;;5032889;28;20510;-69
2022/09/02 00:33:31;;;;;;;4.37;4.07;;;15.90;99.90;;;;;;5033138;28;20463;-68
2022/09/02 00:36:01;;;;;;;4.70;4.30;;;15.90;99.90;;;;;;5031641;28;20286;-69
2022/09/02 00:38:28;;;;;;;4.93;4.50;;;15.90;99.90;;;;;;5033006;28;20202;-69
2022/09/02 00:40:53;;;;;;;4.77;4.33;;;15.90;99.90;;;;;;5032629;28;20413;-69
2022/09/02 00:43:37;;;;;;;4.93;4.50;;;15.90;99.90;;;;;;5033417;28;20503;-69
2022/09/02 00:46:03;;;;;;;5.10;4.67;;;16.00;99.90;;;;;;5032699;28;20263;-69
2022/09/02 00:48:28;;;;;;;5.13;4.73;;;15.90;99.90;;;;;;5032526;28;20460;-69
2022/09/02 00:50:54;;;;;;;5.60;3.93;;;15.90;99.90;;;;;;5032397;28;20174;-69
2022/09/02 00:53:20;;;;;;;4.23;3.83;;;15.90;99.90;;;;;;5033227;28;20170;-69
2022/09/02 00:55:47;;;;;;;5.63;3.93;;;15.90;99.90;;;;;;5032632;28;20166;-69
2022/09/02 00:58:28;;;;;;;5.00;4.60;;;15.90;99.90;;;;;;5032291;28;20199;-68
2022/09/02 01:00:57;;;;;;;4.90;4.50;;;15.90;99.90;;;;;;5032548;28;20436;-68
2022/09/02 01:03:27;;;;;;;4.90;4.50;;;15.80;99.90;;;;;;5032482;28;20761;-68
2022/09/02 01:05:54;;;;;;;4.90;4.27;;;15.80;99.90;;;;;;5029135;28;20764;-68
2022/09/02 01:08:24;;;;;;;4.90;4.50;;;15.80;99.90;;;;;;5023317;28;20445;-69
2022/09/02 01:10:51;;;;;;;4.63;4.23;;;15.70;99.90;;;;;;5031973;28;20416;-69
2022/09/02 01:13:20;;;;;;;5.10;4.60;;;15.70;99.90;;;;;;5032204;28;20407;-69
2022/09/02 01:15:51;;;;;;;4.30;4.00;;;15.70;99.90;;;;;;5032516;28;21022;-69
2022/09/02 01:18:20;;;;;;;5.50;5.00;;;15.70;99.90;;;;;;5031364;28;20932;-68
2022/09/02 01:20:46;;;;;;;4.70;4.30;;;15.60;99.90;;;;;;5032589;28;20401;-68
2022/09/02 01:23:14;;;;;;;8.37;4.50;;;15.70;99.90;;;;;;5032599;28;20408;-70
2022/09/02 01:25:40;;;;;;;4.73;4.30;;;15.60;99.90;;;;;;5032711;28;20405;-69
2022/09/02 01:28:11;;;;;;;4.37;4.07;;;15.70;99.90;;;;;;5030757;28;20488;-68
2022/09/02 01:30:41;;;;;;;7.27;4.30;;;15.70;99.90;;;;;;5032453;28;20181;-69
2022/09/02 01:33:07;;;;;;;5.03;4.63;;;15.60;99.90;;;;;;5032555;28;20429;-68
2022/09/02 01:35:32;;;;;;;4.70;4.30;;;15.50;99.90;;;;;;5032212;28;20428;-69
2022/09/02 01:37:58;;;;;;;4.33;4.03;;;15.50;99.90;;;;;;5031830;28;20425;-68
2022/09/02 01:40:26;;;;;;;5.03;4.63;;;15.40;99.90;;;;;;5032083;28;20199;-69
2022/09/02 01:43:08;;;;;;;5.10;4.70;;;15.30;99.90;;;;;;5030970;28;20174;-68
2022/09/02 01:45:35;;;;;;;5.10;4.60;;;15.30;99.90;;;;;;5032423;28;20438;-69
2022/09/02 01:48:02;;;;;;;5.30;4.80;;;15.30;99.90;;;;;;5033853;28;20433;-69
2022/09/02 01:50:28;;;;;;;4.33;3.93;;;15.40;99.90;;;;;;5036158;28;20463;-69
2022/09/02 01:52:54;;;;;;;4.93;4.53;;;15.40;99.90;;;;;;5036420;28;20812;-69
2022/09/02 01:55:20;;;;;;;5.67;4.50;;;15.40;99.90;;;;;;5036104;28;20432;-68
2022/09/02 01:57:46;;;;;;;4.90;4.50;;;15.40;99.90;;;;;;5035761;28;20298;-69
2022/09/02 02:00:13;;;;;;;5.80;5.40;;;15.30;99.90;;;;;;5036400;28;20253;-69
2022/09/02 02:02:39;;;;;;;5.73;4.07;;;15.40;99.90;;;;;;5036322;28;20403;-69
2022/09/02 02:05:05;;;;;;;4.70;4.30;;;15.40;99.90;;;;;;5036294;28;20859;-70
2022/09/02 02:07:30;;;;;;;5.10;4.70;;;15.30;99.90;;;;;;5035732;28;20942;-68
2022/09/02 02:09:56;;;;;;;4.90;4.50;;;15.30;99.90;;;;;;5036014;28;20986;-69
2022/09/02 02:12:22;;;;;;;5.73;5.30;;;15.20;99.90;;;;;;5035614;28;20206;-68
2022/09/02 02:14:47;;;;;;;4.40;4.00;;;15.20;99.90;;;;;;5035730;28;20176;-69
2022/09/02 02:17:13;;;;;;;4.40;4.10;;;15.30;99.90;;;;;;5035843;28;20327;-69
2022/09/02 02:19:39;;;;;;;4.60;4.30;;;15.30;99.90;;;;;;5036104;28;20218;-69
2022/09/02 02:22:04;;;;;;;5.10;4.60;;;15.30;99.90;;;;;;5035579;28;20228;-69
2022/09/02 02:24:30;;;;;;;5.30;4.80;;;15.20;99.90;;;;;;5035435;28;20398;-69
2022/09/02 02:26:55;;;;;;;5.90;4.77;;;15.10;99.90;;;;;;5034218;28;20226;-68
2022/09/02 02:29:21;;;;;;;5.20;4.70;;;15.10;99.90;;;;;;5035690;28;20204;-69
2022/09/02 02:31:48;;;;;;;5.27;4.13;;;15.10;99.90;;;;;;5035404;28;20532;-69
2022/09/02 02:34:14;;;;;;;4.43;4.10;;;15.00;99.90;;;;;;5035618;28;20451;-69
2022/09/02 02:36:40;;;;;;;4.97;4.57;;;14.90;99.90;;;;;;5035145;28;20713;-69
2022/09/02 02:39:09;;;;;;;4.13;3.77;;;14.90;99.90;;;;;;5035578;28;20175;-68
2022/09/02 02:41:35;;;;;;;4.70;3.50;;;14.80;99.90;;;;;;5035123;28;20415;-69
2022/09/02 02:44:02;;;;;;;4.37;4.03;;;14.90;99.90;;;;;;5034957;28;20912;-68
2022/09/02 02:46:29;;;;;;;4.47;3.73;;;14.80;99.90;;;;;;5035229;28;20402;-69
2022/09/02 02:48:57;;;;;;;4.07;3.70;;;14.80;99.90;;;;;;5035514;28;20468;-69
2022/09/02 02:51:23;;;;;;;4.23;3.83;;;14.80;99.90;;;;;;5035034;28;20433;-68
2022/09/02 02:53:48;;;;;;;9.17;4.30;;;14.90;99.90;;;;;;5035129;28;20418;-69
2022/09/02 02:56:14;;;;;;;4.27;3.63;;;14.80;99.90;;;;;;5035254;28;20181;-69
2022/09/02 02:58:39;;;;;;;4.23;3.93;;;14.80;99.90;;;;;;5034547;28;20247;-69
2022/09/02 03:01:06;;;;;;;4.20;3.80;;;14.70;99.90;;;;;;5035156;28;20258;-67
2022/09/02 03:03:32;;;;;;;3.97;3.67;;;14.70;99.90;;;;;;5035169;28;20228;-68
2022/09/02 03:05:58;;;;;;;3.50;3.17;;;14.60;99.90;;;;;;5034763;28;20499;-68
2022/09/02 03:08:25;;;;;;;3.97;3.27;;;14.60;99.90;;;;;;5034900;28;20932;-67
2022/09/02 03:10:53;;;;;;;5.23;4.33;;;14.50;99.90;;;;;;5035200;28;20408;-67
2022/09/02 03:13:20;;;;;;;4.00;3.70;;;14.40;99.90;;;;;;5034569;28;20457;-67
2022/09/02 03:15:46;;;;;;;4.40;4.10;;;14.40;99.90;;;;;;5033474;28;20923;-68
2022/09/02 03:18:12;;;;;;;4.10;3.50;;;14.40;99.90;;;;;;5024753;28;20441;-67
2022/09/02 03:20:39;;;;;;;4.90;4.20;;;14.40;99.90;;;;;;5025877;28;20476;-68
2022/09/02 03:23:05;;;;;;;4.23;3.93;;;14.40;99.90;;;;;;5013143;28;20209;-68
2022/09/02 03:25:33;;;;;;;4.80;4.40;;;14.40;99.90;;;;;;5013388;28;20954;-68
2022/09/02 03:27:59;;;;;;;4.93;4.53;;;14.40;99.90;;;;;;5016289;28;20195;-69
2022/09/02 03:30:28;;;;;;;3.80;3.50;;;14.40;99.90;;;;;;5033976;28;20977;-68
2022/09/02 03:32:56;;;;;;;4.60;4.20;;;14.40;99.90;;;;;;5034524;28;20412;-68
2022/09/02 03:35:22;;;;;;;4.33;3.90;;;14.50;99.90;;;;;;5035022;28;20411;-68
2022/09/02 03:37:49;;;;;;;4.13;3.83;;;14.50;99.90;;;;;;5034224;28;20430;-68
2022/09/02 03:40:18;;;;;;;4.50;4.20;;;14.60;99.90;;;;;;5034278;28;20401;-68
2022/09/02 03:42:44;;;;;;;4.17;3.87;;;14.50;99.90;;;;;;5034498;28;20484;-68
2022/09/02 03:45:12;;;;;;;4.00;3.70;;;14.40;99.90;;;;;;5033895;28;20494;-68
2022/09/02 03:47:42;;;;;;;4.47;4.07;;;14.40;99.90;;;;;;5034132;28;20438;-69
2022/09/02 03:50:08;;;;;;;4.80;4.40;;;14.30;99.90;;;;;;5033904;28;20584;-68
2022/09/02 03:52:35;;;;;;;4.23;3.83;;;14.40;99.90;;;;;;5034260;28;20411;-68
2022/09/02 03:55:03;;;;;;;4.30;4.00;;;14.40;99.90;;;;;;5034415;28;20919;-68
2022/09/02 03:57:28;;;;;;;4.37;3.97;;;14.50;99.90;;;;;;5033927;28;20447;-68
2022/09/02 03:59:54;;;;;;;4.63;4.23;;;14.40;99.90;;;;;;5032300;28;20427;-68
2022/09/02 04:02:19;;;;;;;7.30;4.20;;;14.30;99.90;;;;;;5034075;28;20181;-68
2022/09/02 04:04:45;;;;;;;4.03;3.30;;;14.40;99.90;;;;;;5034103;28;20655;-68
2022/09/02 04:07:10;;;;;;;5.20;4.43;;;14.40;99.90;;;;;;5033831;28;20284;-68
2022/09/02 04:09:36;;;;;;;4.23;3.67;;;14.30;99.90;;;;;;5032425;28;20696;-68
2022/09/02 04:12:03;;;;;;;5.57;4.10;;;14.40;99.90;;;;;;5033539;28;20200;-68
2022/09/02 04:14:29;;;;;;;4.63;4.03;;;14.40;99.90;;;;;;5033411;28;20168;-68
2022/09/02 04:16:55;;;;;;;4.30;3.90;;;14.30;99.90;;;;;;5033507;28;20767;-68
2022/09/02 04:19:20;;;;;;;4.03;3.60;;;14.30;99.90;;;;;;5033707;28;20620;-68
2022/09/02 04:21:46;;;;;;;4.27;3.77;;;14.30;99.90;;;;;;5033839;28;20174;-68
2022/09/02 04:24:11;;;;;;;4.03;3.63;;;14.30;99.90;;;;;;5033779;28;20218;-69
2022/09/02 04:26:38;;;;;;;4.23;3.83;;;14.20;99.90;;;;;;5033940;28;20634;-68
2022/09/02 04:29:05;;;;;;;3.83;3.53;;;14.20;99.90;;;;;;5031943;28;20203;-68
2022/09/02 04:31:31;;;;;;;4.63;3.30;;;14.20;99.90;;;;;;5033961;28;20431;-68
2022/09/02 04:33:58;;;;;;;4.20;3.80;;;14.20;99.90;;;;;;5032618;28;20929;-69
2022/09/02 04:36:24;;;;;;;4.00;3.70;;;14.20;99.90;;;;;;5033190;28;20199;-68
2022/09/02 04:38:51;;;;;;;4.47;4.03;;;14.10;99.90;;;;;;5033450;28;20448;-68
2022/09/02 04:41:21;;;;;;;4.73;3.80;;;14.10;99.90;;;;;;5033332;28;20412;-69
2022/09/02 04:43:48;;;;;;;4.97;3.77;;;14.10;99.90;;;;;;5032333;28;20431;-69
2022/09/02 04:46:15;;;;;;;4.10;3.70;;;14.00;99.90;;;;;;5033750;28;20412;-69
2022/09/02 04:48:41;;;;;;;3.87;3.20;;;14.10;99.90;;;;;;5033832;28;20452;-69
2022/09/02 04:51:11;;;;;;;3.83;3.53;;;14.10;99.90;;;;;;5033159;28;20803;-69
2022/09/02 04:53:37;;;;;;;3.93;3.63;;;14.20;99.90;;;;;;5033118;28;20489;-69
2022/09/02 04:56:08;;;;;;;5.27;3.77;;;14.10;99.90;;;;;;5032065;28;20426;-68
2022/09/02 04:58:34;;;;;;;5.23;3.70;;;14.10;99.90;;;;;;5033112;28;20473;-68
2022/09/02 05:01:09;;;;;;;4.07;3.50;;;14.20;99.90;;;;;;5031886;28;20556;-68
2022/09/02 05:03:35;;;;;;;6.50;3.57;;;14.20;99.90;;;;;;5032641;28;20795;-68
2022/09/02 05:06:04;;;;;;;5.40;3.90;;;14.10;99.90;;;;;;5032859;28;20475;-69
2022/09/02 05:08:29;;;;;;;4.00;3.60;;;14.10;99.90;;;;;;5031694;28;20430;-68
2022/09/02 05:10:55;;;;;;;4.50;3.70;;;14.20;99.90;;;;;;5033104;28;20401;-68
2022/09/02 05:13:22;;;;;;;4.67;4.27;;;14.10;99.90;;;;;;5033161;28;20174;-69
2022/09/02 05:15:48;;;;;;;3.87;3.57;;;14.10;99.90;;;;;;5032723;28;20183;-68
2022/09/02 05:18:14;;;;;;;4.60;4.20;;;14.20;99.90;;;;;;5032633;28;20446;-68
2022/09/02 05:20:42;;;;;;;4.50;3.70;;;14.30;99.90;;;;;;5032897;28;20935;-69
2022/09/02 05:23:10;;;;;;;3.90;3.40;;;14.20;99.90;;;;;;5030735;28;20163;-68
2022/09/02 05:25:36;;;;;;;5.10;3.70;;;14.20;99.90;;;;;;5033093;28;20421;-68
2022/09/02 05:28:02;;;;;;;7.10;4.00;;;14.10;99.90;;;;;;5032132;28;20429;-68
2022/09/02 05:30:28;;;;;;;4.20;3.90;;;14.10;99.90;;;;;;5031919;28;20454;-68
2022/09/02 05:32:54;;;;;;;4.20;3.90;;;14.10;99.90;;;;;;5032888;28;20489;-68
2022/09/02 05:35:19;;;;;;;4.50;4.10;;;14.30;99.90;;;;;;5033244;28;20479;-68
2022/09/02 05:37:45;;;;;;;4.53;4.17;;;14.40;99.90;;;;;;5031522;28;20540;-69
2022/09/02 05:40:11;;;;;;;4.13;3.83;;;14.40;99.90;;;;;;5036264;28;20176;-69
2022/09/02 05:42:38;;;;;;;6.30;4.17;;;14.50;99.90;;;;;;5044181;28;20164;-69
2022/09/02 05:45:04;;;;;;;4.40;4.00;;;14.50;99.90;;;;;;5043670;28;20526;-69
2022/09/02 05:47:30;;;;;;;4.90;4.40;;;14.50;99.90;;;;;;5043095;28;20516;-69
2022/09/02 05:49:55;;;;;;;5.10;4.60;;;14.50;99.90;;;;;;5043596;28;20448;-69
2022/09/02 05:52:22;;;;;;;4.30;4.00;;;14.70;99.90;;;;;;5040776;28;20227;-68
2022/09/02 05:54:48;;;;;;;4.20;3.90;;;14.70;99.90;;;;;;5044975;28;20181;-68
2022/09/02 05:57:15;;;;;;;6.20;3.50;;;14.80;99.90;;;;;;5065787;22;20443;-68
2022/09/02 05:59:42;;;;;;;4.60;4.07;;;14.90;99.90;;;;;;5031653;28;20464;-68
2022/09/02 06:02:09;;;;;;;4.93;4.40;;;14.90;99.90;;;;;;5032960;28;20815;-68
2022/09/02 06:04:39;;;;;;;5.60;3.90;;;15.10;99.90;;;;;;5032784;28;20453;-68
2022/09/02 06:07:05;;;;;;;5.03;4.47;;;15.20;99.90;;;;;;5033788;28;20920;-68
2022/09/02 06:09:31;;;;;;;3.93;3.60;;;15.20;99.90;;;;;;5052509;28;20475;-68
2022/09/02 06:11:57;;;;;;;5.27;4.10;;;15.30;99.90;;;;;;5049471;28;20256;-68
2022/09/02 06:14:26;;;;;;;4.17;3.77;;;15.40;99.90;;;;;;5043218;28;20170;-68
2022/09/02 06:16:54;;;;;;;3.80;3.50;;;15.50;99.90;;;;;;5052520;28;20187;-68
2022/09/02 06:19:21;;;;;;;6.40;3.73;;;15.60;99.90;;;;;;5050838;28;20972;-68
2022/09/02 06:21:48;;;;;;;6.43;4.50;;;15.70;99.90;;;;;;5052755;28;20413;-68
2022/09/02 06:24:14;;;;;;;4.57;4.17;;;15.80;99.90;;;;;;5052401;28;20413;-67
2022/09/02 06:26:40;;;;;;;5.17;4.67;;;15.90;99.90;;;;;;5052441;28;20408;-68
2022/09/02 06:29:07;;;;;;;4.47;4.07;;;16.00;99.90;;;;;;5050789;28;20465;-68
2022/09/02 06:31:33;;;;;;;5.40;4.93;;;16.20;99.90;;;;;;5052631;28;20849;-69
2022/09/02 06:33:59;;;;;;;4.97;4.67;;;16.30;99.90;;;;;;5053877;28;20413;-68
2022/09/02 06:36:28;;;;;;;7.90;5.20;;;16.40;99.90;;;;;;5056077;28;20169;-68
2022/09/02 06:38:56;;;;;;;6.93;6.23;;;16.50;99.90;;;;;;5056184;28;20438;-68
2022/09/02 06:41:28;;;;;;;5.80;5.20;;;16.50;99.90;;;;;;5055851;28;20424;-68
2022/09/02 06:44:01;;;;;;;6.20;5.60;;;16.70;99.90;;;;;;5054302;28;20426;-68
2022/09/02 06:46:34;;;;;;;5.50;5.00;;;16.80;99.90;;;;;;5056152;28;20445;-68
2022/09/02 06:49:00;;;;;;;6.50;4.97;;;16.90;99.90;;;;;;5055973;28;20464;-69
2022/09/02 06:51:35;;;;;;;5.63;5.13;;;17.00;99.90;;;;;;5056078;28;20419;-69
2022/09/02 06:54:03;;;;;;;4.90;4.50;;;17.20;99.90;;;;;;5055885;28;20392;-69
2022/09/02 06:56:28;;;;;;;4.67;4.07;;;17.30;99.90;;;;;;5055918;28;20412;-68
2022/09/02 06:58:55;;;;;;;4.97;4.50;;;17.40;99.90;;;;;;5054917;28;20448;-68
2022/09/02 07:01:27;;;;;;;4.47;3.90;;;17.50;99.90;;;;;;5055813;28;20553;-67
2022/09/02 07:06:40;;;;;;;3.97;3.57;;;17.30;99.90;;;;;;5055025;28;20384;-69
2022/09/02 07:09:07;;;;;;;4.17;3.40;;;17.50;99.90;;;;;;5055773;28;20532;-69
2022/09/02 07:11:34;;;;;;;4.13;3.67;;;17.70;99.90;;;;;;5056390;28;20501;-68
2022/09/02 07:14:00;;;;;;;4.60;3.80;;;17.80;99.90;;;;;;5055660;28;20413;-68
2022/09/02 07:16:28;;;;;;;4.40;4.00;;;17.80;99.90;;;;;;5055625;28;20416;-69
2022/09/02 07:18:54;;;;;;;4.60;4.20;;;17.80;99.90;;;;;;5055483;28;20443;-68
2022/09/02 07:21:20;;;;;;;5.10;4.60;;;17.90;99.90;;;;;;5055287;28;20482;-68
2022/09/02 07:23:45;;;;;;;4.17;3.60;;;17.90;99.90;;;;;;5055151;28;20401;-68
2022/09/02 07:26:16;;;;;;;3.77;3.47;;;18.00;99.90;;;;;;5055402;28;20192;-68
2022/09/02 07:28:42;;;;;;;4.27;3.87;;;18.00;99.90;;;;;;5055252;28;20608;-68
2022/09/02 07:31:12;;;;;;;3.57;3.27;;;17.90;99.90;;;;;;5053926;28;20839;-67
2022/09/02 07:33:38;;;;;;;4.20;3.90;;;18.00;99.90;;;;;;5055088;28;20397;-68
2022/09/02 07:36:05;;;;;;;4.00;3.60;;;17.90;99.90;;;;;;5054903;28;20466;-68
2022/09/02 07:38:31;;;;;;;4.63;3.53;;;18.00;99.90;;;;;;5053446;28;20440;-68
2022/09/02 07:40:58;;;;;;;3.40;3.10;;;18.10;99.90;;;;;;5055344;28;20498;-69
2022/09/02 07:43:25;;;;;;;4.13;3.77;;;18.10;99.90;;;;;;5053685;28;20421;-69
2022/09/02 07:45:52;;;;;;;5.20;3.30;;;18.20;99.90;;;;;;5052749;28;20405;-68
2022/09/02 07:48:18;;;;;;;3.37;3.07;;;18.30;99.90;;;;;;5054915;28;20494;-68
2022/09/02 07:50:44;;;;;;;5.07;3.33;;;18.40;99.90;;;;;;5054943;28;20921;-69
2022/09/02 07:53:12;;;;;;;2.47;2.27;;;18.40;99.90;;;;;;5055307;28;20186;-69
2022/09/02 07:55:39;;;;;;;3.20;2.90;;;18.70;99.90;;;;;;5044481;28;20434;-69
2022/09/02 07:58:05;;;;;;;3.43;2.97;;;18.70;99.90;;;;;;5037985;28;21036;-69
2022/09/02 08:00:31;;;;;;;3.07;2.83;;;18.80;99.90;;;;;;5054776;28;20405;-69
2022/09/02 08:02:57;;;;;;;3.40;2.93;;;18.80;99.90;;;;;;5054553;28;20624;-68
2022/09/02 08:05:23;;;;;;;3.73;2.40;;;18.80;99.90;;;;;;5054672;28;20163;-69
2022/09/02 08:07:49;;;;;;;3.73;2.67;;;18.80;99.90;;;;;;5054479;28;20189;-69
2022/09/02 08:10:15;;;;;;;2.77;2.57;;;18.90;99.90;;;;;;5054537;28;20902;-69
2022/09/02 08:12:42;;;;;;;4.70;2.73;;;19.10;99.90;;;;;;5054417;28;20158;-69
2022/09/02 08:15:11;;;;;;;5.73;2.50;;;19.20;99.90;;;;;;5053850;28;20413;-69
2022/09/02 08:17:39;;;;;;;3.37;3.00;;;19.30;99.90;;;;;;5054716;28;20421;-69
2022/09/02 08:20:08;;;;;;;3.77;2.80;;;19.40;99.90;;;;;;5054623;28;20483;-69
2022/09/02 08:22:35;;;;;;;2.60;2.40;;;19.40;99.90;;;;;;5054131;28;20409;-69
2022/09/02 08:25:01;;;;;;;3.20;2.53;;;19.40;99.90;;;;;;5046266;28;20770;-69
2022/09/02 08:27:27;;;;;;;3.57;2.37;;;19.40;99.90;;;;;;5042982;28;20421;-69
2022/09/02 08:29:53;;;;;;;7.50;2.60;;;19.40;99.90;;;;;;5052337;28;20954;-69
2022/09/02 08:32:19;;;;;;;2.70;2.50;;;19.60;99.90;;;;;;5053543;28;20166;-69
2022/09/02 08:34:45;;;;;;;2.47;2.03;;;19.70;99.90;;;;;;5054321;28;20405;-69
2022/09/02 08:37:10;;;;;;;3.73;2.10;;;19.70;99.90;;;;;;5054075;28;20459;-69
2022/09/02 08:39:37;;;;;;;2.90;2.47;;;19.80;99.90;;;;;;5052780;28;20643;-69
2022/09/02 08:42:22;;;;;;;2.30;2.10;;;19.70;99.90;;;;;;5053733;28;20242;-69
2022/09/02 08:44:54;;;;;;;3.27;2.60;;;20.00;99.90;;;;;;5054832;28;20902;-69
2022/09/02 08:47:25;;;;;;;2.40;2.03;;;19.70;99.90;;;;;;5053604;28;20425;-69
2022/09/02 08:49:56;;;;;;;2.20;2.00;;;19.80;99.90;;;;;;5054643;28;20429;-70
2022/09/02 08:52:56;;;;;;;3.80;2.50;;;19.90;99.90;;;;;;5054608;28;20946;-69
2022/09/02 08:55:31;;;;;;;3.33;2.00;;;20.10;99.90;;;;;;5048070;28;20532;-69
2022/09/02 08:57:57;;;;;;;7.30;2.67;;;20.10;99.90;;;;;;5053556;28;20452;-69
2022/09/02 09:00:22;;;;;;;2.10;1.90;;;20.10;99.90;;;;;;5053482;28;20459;-68
2022/09/02 09:03:17;;;;;;;2.93;2.40;;;20.20;99.90;;;;;;5053886;28;20433;-69
2022/09/02 09:06:20;;;;;;;2.60;1.90;;;20.30;99.90;;;;;;5050396;28;20273;-69
2022/09/02 09:09:04;;;;;;;2.30;1.90;;;20.30;99.90;;;;;;5053442;28;20452;-69
2022/09/02 09:11:41;;;;;;;3.73;2.17;;;20.30;99.90;;;;;;5054244;28;20380;-69
2022/09/02 09:14:39;;;;;;;2.50;2.27;;;20.40;99.90;;;;;;5054075;28;20393;-69
2022/09/02 09:17:38;;;;;;;2.13;1.93;;;20.40;99.90;;;;;;5052801;28;20373;-68
2022/09/02 09:20:14;;;;;;;1.83;1.60;;;20.60;99.90;;;;;;5053613;28;20374;-69
2022/09/02 09:22:41;;;;;;;2.30;2.10;;;20.80;99.90;;;;;;5053762;28;20393;-69
2022/09/02 09:25:14;;;;;;;4.23;1.80;;;20.70;99.90;;;;;;5052018;28;20425;-68
2022/09/02 09:27:40;;;;;;;4.77;2.00;;;20.70;99.90;;;;;;5053561;28;20428;-69
2022/09/02 09:30:08;;;;;;;1.90;1.80;;;20.70;99.80;;;;;;5051804;28;20452;-69
2022/09/02 09:32:41;;;;;;;4.87;2.30;;;20.80;99.90;;;;;;5052914;28;20410;-69
2022/09/02 09:35:10;;;;;;;3.23;1.80;;;21.00;99.80;;;;;;5053627;28;20389;-69
2022/09/02 09:37:35;;;;;;;3.00;2.20;;;20.90;99.70;;;;;;5053327;28;20429;-69
2022/09/02 09:40:22;;;;;;;3.50;3.20;;;21.20;99.40;;;;;;5053695;28;20894;-68
2022/09/02 09:42:52;;;;;;;3.30;1.90;;;21.30;99.40;;;;;;5053192;28;20174;-69
2022/09/02 09:45:26;;;;;;;2.00;1.70;;;21.30;98.30;;;;;;5052859;28;20413;-68
2022/09/02 09:48:30;;;;;;;3.47;1.60;;;21.30;98.20;;;;;;5052960;28;20515;-69
2022/09/02 09:50:55;;;;;;;2.93;1.73;;;21.40;97.90;;;;;;5050175;28;20883;-68
2022/09/02 09:53:24;;;;;;;2.70;1.87;;;21.40;98.30;;;;;;5053146;28;20421;-68
2022/09/02 09:55:56;;;;;;;1.70;1.60;;;21.50;97.90;;;;;;5053072;28;20170;-68
2022/09/02 09:58:26;;;;;;;2.10;2.00;;;21.50;97.40;;;;;;5052848;28;20441;-68
2022/09/02 10:00:55;;;;;;;2.07;1.70;;;21.60;97.20;;;;;;5052695;28;20945;-68
2022/09/02 10:03:24;;;;;;;4.20;1.70;;;21.70;97.10;;;;;;5052877;28;20409;-68
2022/09/02 10:05:56;;;;;;;2.33;1.60;;;21.70;96.80;;;;;;5052770;28;21048;-68
2022/09/02 10:08:27;;;;;;;1.87;1.57;;;21.90;95.00;;;;;;5053727;28;20463;-67
2022/09/02 10:11:05;;;;;;;2.03;1.80;;;21.80;95.60;;;;;;5056872;28;20436;-67
2022/09/02 10:13:33;;;;;;;1.60;1.40;;;21.90;95.60;;;;;;5056577;28;20444;-67
2022/09/02 10:16:20;;;;;;;2.70;1.53;;;22.10;94.90;;;;;;5056548;28;20838;-69
2022/09/02 10:19:19;;;;;;;4.43;1.87;;;22.10;94.60;;;;;;5055418;28;20409;-69
2022/09/02 10:22:15;;;;;;;1.80;1.40;;;22.20;94.60;;;;;;5033330;28;20420;-69
2022/09/02 10:24:43;;;;;;;2.30;1.80;;;22.50;94.10;;;;;;5056745;28;20933;-69
2022/09/02 10:27:15;;;;;;;1.70;1.60;;;22.30;93.10;;;;;;5056668;28;20404;-69
2022/09/02 10:29:57;;;;;;;2.00;1.40;;;22.50;92.80;;;;;;5054911;28;20521;-69
2022/09/02 10:32:42;;;;;;;3.97;1.67;;;22.50;92.10;;;;;;5056527;28;20410;-69
2022/09/02 10:35:24;;;;;;;2.17;1.30;;;22.50;91.40;;;;;;5056538;28;20503;-68
2022/09/02 10:38:07;;;;;;;1.53;1.37;;;22.30;91.60;;;;;;5056571;28;20439;-68
2022/09/02 10:40:37;;;;;;;4.13;1.27;;;22.30;91.30;;;;;;5056192;28;20492;-68
2022/09/02 10:43:17;;;;;;;1.93;1.50;;;22.40;91.00;;;;;;5054022;28;20409;-69
2022/09/02 10:45:49;;;;;;;1.73;1.37;;;22.50;91.40;;;;;;5056033;28;20442;-69
2022/09/02 10:48:33;;;;;;;1.57;1.30;;;22.80;89.90;;;;;;5056329;28;20483;-68
2022/09/02 10:51:20;;;;;;;2.33;1.30;;;23.40;89.40;;;;;;5055656;28;20389;-69
2022/09/02 10:53:52;;;;;;;1.83;1.37;;;24.50;85.20;;;;;;5054265;28;20400;-68
2022/09/02 10:56:25;;;;;;;2.27;1.47;;;25.00;83.50;;;;;;5055924;28;20890;-69
2022/09/02 10:59:05;;;;;;;1.63;1.50;;;25.70;80.60;;;;;;5055086;28;20828;-69
2022/09/02 11:01:38;;;;;;;1.70;1.50;;;25.90;77.30;;;;;;5055718;28;20389;-69
2022/09/02 11:04:12;;;;;;;2.07;1.20;;;26.90;75.70;;;;;;5055838;28;20447;-67
2022/09/02 11:06:40;;;;;;;1.20;1.10;;;26.50;72.50;;;;;;5055857;28;20397;-68
2022/09/02 11:09:14;;;;;;;2.27;1.33;;;26.20;72.10;;;;;;5054878;28;20441;-68
2022/09/02 11:11:49;;;;;;;2.17;1.37;;;26.50;72.20;;;;;;5055657;28;20389;-68
2022/09/02 11:14:33;;;;;;;2.60;1.23;;;26.80;71.10;;;;;;5054979;28;20394;-68
2022/09/02 11:17:13;;;;;;;1.80;1.13;;;27.40;68.80;;;;;;5055520;28;20389;-69
2022/09/02 11:20:20;;;;;;;3.17;1.30;;;28.10;66.00;;;;;;5047550;28;20432;-68
2022/09/02 11:23:08;;;;;;;2.47;1.87;;;28.80;67.10;;;;;;5014670;28;20405;-69
2022/09/02 11:25:51;;;;;;;1.63;1.50;;;29.10;61.20;;;;;;5049093;28;20438;-69
2022/09/02 11:28:28;;;;;;;3.30;1.40;;;28.50;61.30;;;;;;5054746;28;20511;-69
2022/09/02 11:31:14;;;;;;;3.70;1.23;;;28.70;61.40;;;;;;5055097;28;20398;-69
2022/09/02 11:33:50;;;;;;;3.00;1.50;;;27.50;63.10;;;;;;5065509;28;20449;-69
2022/09/02 11:36:17;;;;;;;1.97;1.43;;;27.50;62.60;;;;;;5035613;28;20776;-69
2022/09/02 11:39:04;;;;;;;1.20;1.10;;;27.20;62.00;;;;;;5035439;28;20918;-70
2022/09/02 11:41:44;;;;;;;1.63;1.30;;;28.00;62.20;;;;;;5051725;28;20924;-69
2022/09/02 11:44:18;;;;;;;2.47;1.33;;;28.10;60.00;;;;;;5034897;28;20371;-69
2022/09/02 11:47:05;;;;;;;2.13;1.33;;;28.70;59.90;;;;;;5034883;28;20397;-69
2022/09/02 11:50:14;;;;;;;1.80;1.40;;;29.10;59.40;;;;;;5034749;28;20446;-69
2022/09/02 11:52:57;;;;;;;1.60;1.27;;;30.30;59.20;;;;;;5034608;28;20414;-69
2022/09/02 11:55:35;;;;;;;3.20;1.40;;;30.10;56.60;;;;;;5034288;28;20386;-69
2022/09/02 11:58:02;;;;;;;7.50;2.00;;;30.20;56.60;;;;;;5034162;28;20892;-69
2022/09/02 12:00:31;;;;;;;2.43;1.37;;;30.40;56.00;;;;;;5051475;28;20439;-69
2022/09/02 12:03:08;;;;;;;1.63;1.03;;;31.10;55.80;;;;;;5053858;28;20492;-69
2022/09/02 12:05:34;;;;;;;2.23;1.30;;;30.40;54.10;;;;;;5054356;28;20748;-69
2022/09/02 12:08:10;;;;;;;1.50;1.40;;;30.00;56.40;;;;;;5054206;28;20511;-69
2022/09/02 12:10:46;;;;;;;1.93;1.30;;;31.00;53.00;;;;;;5054277;28;20530;-69
2022/09/02 12:13:30;;;;;;;1.43;1.03;;;31.00;53.70;;;;;;5054499;28;20821;-69
2022/09/02 12:16:14;;;;;;;2.73;1.50;;;31.00;54.50;;;;;;5054517;28;20397;-69
2022/09/02 12:18:45;;;;;;;1.80;1.53;;;31.40;55.20;;;;;;5053858;28;20816;-70
2022/09/02 12:21:13;;;;;;;2.07;1.33;;;31.00;53.40;;;;;;5053897;28;20978;-69
2022/09/02 12:23:51;;;;;;;2.07;1.30;;;31.00;53.30;;;;;;5053966;28;20401;-69
2022/09/02 12:26:23;;;;;;;1.50;1.37;;;30.20;53.60;;;;;;5052985;28;20423;-69
2022/09/02 12:28:52;;;;;;;2.80;1.10;;;29.80;54.30;;;;;;5054101;28;20973;-69
2022/09/02 12:31:39;;;;;;;1.83;1.40;;;29.70;55.00;;;;;;5053601;28;20420;-69
2022/09/02 12:34:20;;;;;;;1.10;1.00;;;30.40;54.30;;;;;;5051922;28;20462;-70
2022/09/02 12:36:52;;;;;;;2.80;1.90;;;31.40;53.60;;;;;;5053605;28;20440;-70
2022/09/02 12:39:24;;;;;;;1.33;1.20;;;32.30;51.50;;;;;;5052978;28;20477;-70
2022/09/02 12:42:18;;;;;;;1.50;1.30;;;33.70;50.60;;;;;;5053066;28;20401;-70
2022/09/02 12:45:10;;;;;;;2.13;1.50;;;33.50;48.10;;;;;;5064395;23;20485;-69
2022/09/02 12:47:57;;;;;;;3.07;1.20;;;32.90;48.70;;;;;;5033750;28;20402;-69
2022/09/02 12:50:32;;;;;;;3.00;1.20;;;32.60;49.60;;;;;;5033692;28;20453;-69
2022/09/02 12:53:33;;;;;;;3.13;1.20;;;32.90;48.90;;;;;;5033454;28;20424;-69
2022/09/02 12:56:05;;;;;;;1.57;1.30;;;32.00;50.00;;;;;;5048132;28;20436;-69
2022/09/02 12:58:41;;;;;;;2.80;1.50;;;33.10;47.20;;;;;;5033591;28;20402;-69
2022/09/02 13:01:16;;;;;;;2.80;2.60;;;32.30;48.50;;;;;;5033090;28;20917;-70
2022/09/02 13:04:19;;;;;;;1.43;1.30;;;32.40;48.10;;;;;;5033354;28;20401;-70
2022/09/02 13:07:04;;;;;;;2.60;1.30;;;32.00;49.60;;;;;;5032977;28;20766;-69
2022/09/02 13:09:48;;;;;;;1.50;1.40;;;32.60;50.70;;;;;;5032843;28;20528;-69